sensor_id;sensor_type;location;lat;lon;timestamp;P1;durP1;ratioP1;P2;durP2;ratioP2
65130;SDS011;51709;54.912;8.316;2023-06-14T00:05:02;3.23;;;2.83;;
65130;SDS011;51709;54.912;8.316;2023-06-14T00:10:23;3.55;;;2.15;;
65130;SDS011;51709;54.912;8.316;2023-06-14T00:15:43;4.65;;;2.60;;
65130;SDS011;51709;54.912;8.316;2023-06-14T00:21:04;3.22;;;2.35;;
65130;SDS011;51709;54.912;8.316;2023-06-14T00:26:26;3.80;;;2.53;;
65130;SDS011;51709;54.912;8.316;2023-06-14T00:31:46;6.82;;;2.28;;
65130;SDS011;51709;54.912;8.316;2023-06-14T00:37:07;4.85;;;2.30;;
65130;SDS011;51709;54.912;8.316;2023-06-14T00:42:28;5.80;;;1.92;;
65130;SDS011;51709;54.912;8.316;2023-06-14T00:47:49;2.15;;;1.95;;
65130;SDS011;51709;54.912;8.316;2023-06-14T00:53:13;3.05;;;2.03;;
65130;SDS011;51709;54.912;8.316;2023-06-14T00:58:35;3.53;;;2.20;;
65130;SDS011;51709;54.912;8.316;2023-06-14T01:03:55;2.47;;;2.28;;
65130;SDS011;51709;54.912;8.316;2023-06-14T01:09:37;4.78;;;2.40;;
65130;SDS011;51709;54.912;8.316;2023-06-14T01:15:10;4.03;;;2.22;;
65130;SDS011;51709;54.912;8.316;2023-06-14T01:20:33;2.90;;;2.13;;
65130;SDS011;51709;54.912;8.316;2023-06-14T01:25:59;4.05;;;2.42;;
65130;SDS011;51709;54.912;8.316;2023-06-14T01:31:24;2.72;;;2.40;;
65130;SDS011;51709;54.912;8.316;2023-06-14T01:36:46;2.42;;;1.98;;
65130;SDS011;51709;54.912;8.316;2023-06-14T01:42:08;3.70;;;2.30;;
65130;SDS011;51709;54.912;8.316;2023-06-14T01:47:31;5.63;;;2.25;;
65130;SDS011;51709;54.912;8.316;2023-06-14T01:52:53;4.35;;;2.63;;
65130;SDS011;51709;54.912;8.316;2023-06-14T01:58:14;2.92;;;2.42;;
65130;SDS011;51709;54.912;8.316;2023-06-14T02:03:40;2.80;;;1.92;;
65130;SDS011;51709;54.912;8.316;2023-06-14T02:09:01;6.47;;;2.47;;
65130;SDS011;51709;54.912;8.316;2023-06-14T02:14:23;5.85;;;2.22;;
65130;SDS011;51709;54.912;8.316;2023-06-14T02:19:44;4.97;;;1.98;;
65130;SDS011;51709;54.912;8.316;2023-06-14T02:25:05;2.92;;;2.15;;
65130;SDS011;51709;54.912;8.316;2023-06-14T02:30:27;3.55;;;1.88;;
65130;SDS011;51709;54.912;8.316;2023-06-14T02:35:49;3.50;;;2.10;;
65130;SDS011;51709;54.912;8.316;2023-06-14T02:41:10;4.65;;;2.50;;
65130;SDS011;51709;54.912;8.316;2023-06-14T02:46:31;3.65;;;1.80;;
65130;SDS011;51709;54.912;8.316;2023-06-14T02:51:51;3.63;;;1.85;;
65130;SDS011;51709;54.912;8.316;2023-06-14T02:57:12;2.13;;;2.00;;
65130;SDS011;51709;54.912;8.316;2023-06-14T03:02:34;3.25;;;2.67;;
65130;SDS011;51709;54.912;8.316;2023-06-14T03:07:55;4.60;;;2.70;;
65130;SDS011;51709;54.912;8.316;2023-06-14T03:13:16;7.60;;;2.58;;
65130;SDS011;51709;54.912;8.316;2023-06-14T03:18:37;4.57;;;2.63;;
65130;SDS011;51709;54.912;8.316;2023-06-14T03:24:00;3.38;;;2.60;;
65130;SDS011;51709;54.912;8.316;2023-06-14T03:29:21;4.97;;;2.60;;
65130;SDS011;51709;54.912;8.316;2023-06-14T03:34:41;4.63;;;2.58;;
65130;SDS011;51709;54.912;8.316;2023-06-14T03:40:09;2.47;;;2.28;;
65130;SDS011;51709;54.912;8.316;2023-06-14T03:45:36;3.40;;;2.22;;
65130;SDS011;51709;54.912;8.316;2023-06-14T03:50:58;2.60;;;2.08;;
65130;SDS011;51709;54.912;8.316;2023-06-14T03:56:22;6.80;;;3.30;;
65130;SDS011;51709;54.912;8.316;2023-06-14T04:01:43;2.88;;;2.55;;
65130;SDS011;51709;54.912;8.316;2023-06-14T04:07:07;4.00;;;2.93;;
65130;SDS011;51709;54.912;8.316;2023-06-14T04:12:29;4.18;;;2.45;;
65130;SDS011;51709;54.912;8.316;2023-06-14T04:17:52;6.72;;;2.60;;
65130;SDS011;51709;54.912;8.316;2023-06-14T04:23:18;4.57;;;2.40;;
65130;SDS011;51709;54.912;8.316;2023-06-14T04:28:39;3.90;;;2.78;;
65130;SDS011;51709;54.912;8.316;2023-06-14T04:34:03;6.63;;;3.20;;
65130;SDS011;51709;54.912;8.316;2023-06-14T04:39:27;3.20;;;2.50;;
65130;SDS011;51709;54.912;8.316;2023-06-14T04:44:49;3.47;;;2.67;;
65130;SDS011;51709;54.912;8.316;2023-06-14T04:50:10;5.68;;;2.90;;
65130;SDS011;51709;54.912;8.316;2023-06-14T04:55:33;6.70;;;2.88;;
65130;SDS011;51709;54.912;8.316;2023-06-14T05:00:56;3.80;;;2.35;;
65130;SDS011;51709;54.912;8.316;2023-06-14T05:06:17;3.13;;;2.70;;
65130;SDS011;51709;54.912;8.316;2023-06-14T05:11:39;3.67;;;2.70;;
65130;SDS011;51709;54.912;8.316;2023-06-14T05:17:00;2.70;;;2.50;;
65130;SDS011;51709;54.912;8.316;2023-06-14T05:22:21;7.57;;;2.78;;
65130;SDS011;51709;54.912;8.316;2023-06-14T05:27:42;6.50;;;2.45;;
65130;SDS011;51709;54.912;8.316;2023-06-14T05:33:02;7.05;;;3.22;;
65130;SDS011;51709;54.912;8.316;2023-06-14T05:38:24;8.80;;;3.20;;
65130;SDS011;51709;54.912;8.316;2023-06-14T05:43:45;6.35;;;3.40;;
65130;SDS011;51709;54.912;8.316;2023-06-14T05:49:06;6.85;;;3.60;;
65130;SDS011;51709;54.912;8.316;2023-06-14T05:54:27;3.33;;;3.00;;
65130;SDS011;51709;54.912;8.316;2023-06-14T05:59:47;5.90;;;3.42;;
65130;SDS011;51709;54.912;8.316;2023-06-14T06:05:09;4.15;;;2.63;;
65130;SDS011;51709;54.912;8.316;2023-06-14T06:10:33;7.53;;;3.03;;
65130;SDS011;51709;54.912;8.316;2023-06-14T06:15:54;4.28;;;3.35;;
65130;SDS011;51709;54.912;8.316;2023-06-14T06:21:15;4.07;;;3.10;;
65130;SDS011;51709;54.912;8.316;2023-06-14T06:26:36;6.72;;;3.50;;
65130;SDS011;51709;54.912;8.316;2023-06-14T06:31:57;6.18;;;3.97;;
65130;SDS011;51709;54.912;8.316;2023-06-14T06:37:19;5.22;;;2.90;;
65130;SDS011;51709;54.912;8.316;2023-06-14T06:42:39;7.32;;;3.60;;
65130;SDS011;51709;54.912;8.316;2023-06-14T06:48:04;5.55;;;2.65;;
65130;SDS011;51709;54.912;8.316;2023-06-14T06:53:25;8.43;;;3.08;;
65130;SDS011;51709;54.912;8.316;2023-06-14T06:58:59;12.02;;;3.33;;
65130;SDS011;51709;54.912;8.316;2023-06-14T07:04:20;6.70;;;3.33;;
65130;SDS011;51709;54.912;8.316;2023-06-14T07:09:41;3.80;;;3.00;;
65130;SDS011;51709;54.912;8.316;2023-06-14T07:15:02;6.60;;;3.13;;
65130;SDS011;51709;54.912;8.316;2023-06-14T07:20:25;7.72;;;3.42;;
65130;SDS011;51709;54.912;8.316;2023-06-14T07:25:46;7.70;;;3.50;;
65130;SDS011;51709;54.912;8.316;2023-06-14T07:31:06;8.25;;;3.20;;
65130;SDS011;51709;54.912;8.316;2023-06-14T07:36:27;7.50;;;3.42;;
65130;SDS011;51709;54.912;8.316;2023-06-14T07:41:48;7.05;;;2.75;;
65130;SDS011;51709;54.912;8.316;2023-06-14T07:47:09;4.75;;;3.30;;
65130;SDS011;51709;54.912;8.316;2023-06-14T07:52:30;5.25;;;3.05;;
65130;SDS011;51709;54.912;8.316;2023-06-14T07:57:51;5.13;;;3.63;;
65130;SDS011;51709;54.912;8.316;2023-06-14T08:03:12;8.55;;;3.22;;
65130;SDS011;51709;54.912;8.316;2023-06-14T08:08:32;5.18;;;3.08;;
65130;SDS011;51709;54.912;8.316;2023-06-14T08:13:53;6.70;;;3.28;;
65130;SDS011;51709;54.912;8.316;2023-06-14T08:19:14;9.95;;;3.58;;
65130;SDS011;51709;54.912;8.316;2023-06-14T08:24:36;13.88;;;3.08;;
65130;SDS011;51709;54.912;8.316;2023-06-14T08:29:57;3.22;;;2.92;;
65130;SDS011;51709;54.912;8.316;2023-06-14T08:35:18;3.17;;;2.83;;
65130;SDS011;51709;54.912;8.316;2023-06-14T08:40:38;2.40;;;2.20;;
65130;SDS011;51709;54.912;8.316;2023-06-14T08:46:02;4.68;;;2.65;;
65130;SDS011;51709;54.912;8.316;2023-06-14T08:51:26;5.32;;;2.65;;
65130;SDS011;51709;54.912;8.316;2023-06-14T08:56:54;3.70;;;3.10;;
65130;SDS011;51709;54.912;8.316;2023-06-14T09:02:17;4.05;;;2.60;;
65130;SDS011;51709;54.912;8.316;2023-06-14T09:07:40;4.00;;;3.03;;
65130;SDS011;51709;54.912;8.316;2023-06-14T09:20:05;3.72;;;2.97;;
65130;SDS011;51709;54.912;8.316;2023-06-14T09:25:30;3.25;;;2.45;;
65130;SDS011;51709;54.912;8.316;2023-06-14T09:31:00;4.78;;;2.33;;
65130;SDS011;51709;54.912;8.316;2023-06-14T09:36:21;7.13;;;2.83;;
65130;SDS011;51709;54.912;8.316;2023-06-14T09:41:42;3.40;;;2.78;;
65130;SDS011;51709;54.912;8.316;2023-06-14T09:47:03;2.83;;;2.63;;
65130;SDS011;51709;54.912;8.316;2023-06-14T09:52:25;5.38;;;2.85;;
65130;SDS011;51709;54.912;8.316;2023-06-14T09:57:47;4.68;;;3.00;;
65130;SDS011;51709;54.912;8.316;2023-06-14T10:08:37;5.70;;;3.20;;
65130;SDS011;51709;54.912;8.316;2023-06-14T10:13:59;7.20;;;3.00;;
65130;SDS011;51709;54.912;8.316;2023-06-14T10:19:21;5.30;;;2.92;;
65130;SDS011;51709;54.912;8.316;2023-06-14T10:24:46;3.30;;;2.88;;
65130;SDS011;51709;54.912;8.316;2023-06-14T10:30:08;4.03;;;3.13;;
65130;SDS011;51709;54.912;8.316;2023-06-14T10:35:30;3.40;;;3.10;;
65130;SDS011;51709;54.912;8.316;2023-06-14T10:40:54;7.18;;;3.35;;
65130;SDS011;51709;54.912;8.316;2023-06-14T10:46:16;4.43;;;3.05;;
65130;SDS011;51709;54.912;8.316;2023-06-14T10:51:41;4.30;;;3.30;;
65130;SDS011;51709;54.912;8.316;2023-06-14T10:57:06;6.35;;;3.38;;
65130;SDS011;51709;54.912;8.316;2023-06-14T11:14:14;4.13;;;3.85;;
65130;SDS011;51709;54.912;8.316;2023-06-14T11:19:35;3.80;;;3.50;;
65130;SDS011;51709;54.912;8.316;2023-06-14T11:24:57;3.70;;;3.50;;
65130;SDS011;51709;54.912;8.316;2023-06-14T11:30:21;3.65;;;3.42;;
65130;SDS011;51709;54.912;8.316;2023-06-14T11:35:44;3.97;;;3.50;;
65130;SDS011;51709;54.912;8.316;2023-06-14T11:41:06;4.25;;;3.92;;
65130;SDS011;51709;54.912;8.316;2023-06-14T11:46:31;7.20;;;3.80;;
65130;SDS011;51709;54.912;8.316;2023-06-14T11:51:52;3.97;;;3.70;;
65130;SDS011;51709;54.912;8.316;2023-06-14T11:57:14;4.63;;;4.03;;
65130;SDS011;51709;54.912;8.316;2023-06-14T12:02:35;4.80;;;4.30;;
65130;SDS011;51709;54.912;8.316;2023-06-14T12:07:59;4.63;;;4.22;;
65130;SDS011;51709;54.912;8.316;2023-06-14T12:13:21;4.60;;;3.90;;
65130;SDS011;51709;54.912;8.316;2023-06-14T12:18:41;4.25;;;3.95;;
65130;SDS011;51709;54.912;8.316;2023-06-14T12:24:04;4.38;;;4.03;;
65130;SDS011;51709;54.912;8.316;2023-06-14T12:29:27;7.90;;;5.47;;
65130;SDS011;51709;54.912;8.316;2023-06-14T12:34:47;3.85;;;3.55;;
65130;SDS011;51709;54.912;8.316;2023-06-14T12:40:10;6.07;;;3.75;;
65130;SDS011;51709;54.912;8.316;2023-06-14T12:45:31;6.27;;;3.57;;
65130;SDS011;51709;54.912;8.316;2023-06-14T12:58:49;3.10;;;2.90;;
65130;SDS011;51709;54.912;8.316;2023-06-14T13:04:09;3.40;;;3.10;;
65130;SDS011;51709;54.912;8.316;2023-06-14T13:09:30;3.03;;;2.70;;
65130;SDS011;51709;54.912;8.316;2023-06-14T13:14:51;2.63;;;2.42;;
65130;SDS011;51709;54.912;8.316;2023-06-14T13:20:12;5.03;;;3.05;;
65130;SDS011;51709;54.912;8.316;2023-06-14T13:25:34;2.92;;;2.72;;
65130;SDS011;51709;54.912;8.316;2023-06-14T13:30:55;9.18;;;2.30;;
65130;SDS011;51709;54.912;8.316;2023-06-14T13:36:16;2.78;;;2.58;;
65130;SDS011;51709;54.912;8.316;2023-06-14T13:41:37;3.33;;;2.88;;
65130;SDS011;51709;54.912;8.316;2023-06-14T13:46:58;6.70;;;3.25;;
65130;SDS011;51709;54.912;8.316;2023-06-14T13:52:18;8.75;;;3.15;;
65130;SDS011;51709;54.912;8.316;2023-06-14T13:57:39;2.47;;;2.28;;
65130;SDS011;51709;54.912;8.316;2023-06-14T14:03:00;4.35;;;2.63;;
65130;SDS011;51709;54.912;8.316;2023-06-14T14:08:20;3.08;;;2.78;;
65130;SDS011;51709;54.912;8.316;2023-06-14T14:13:41;4.50;;;2.88;;
65130;SDS011;51709;54.912;8.316;2023-06-14T14:19:03;3.25;;;2.95;;
65130;SDS011;51709;54.912;8.316;2023-06-14T14:24:24;3.30;;;3.00;;
65130;SDS011;51709;54.912;8.316;2023-06-14T14:29:45;2.85;;;2.65;;
65130;SDS011;51709;54.912;8.316;2023-06-14T14:35:06;8.82;;;2.78;;
65130;SDS011;51709;54.912;8.316;2023-06-14T14:40:27;4.15;;;2.85;;
65130;SDS011;51709;54.912;8.316;2023-06-14T14:45:47;4.20;;;2.72;;
65130;SDS011;51709;54.912;8.316;2023-06-14T14:51:08;3.22;;;2.92;;
65130;SDS011;51709;54.912;8.316;2023-06-14T14:56:28;3.40;;;3.13;;
65130;SDS011;51709;54.912;8.316;2023-06-14T15:01:51;4.70;;;2.95;;
65130;SDS011;51709;54.912;8.316;2023-06-14T15:07:12;3.38;;;3.13;;
65130;SDS011;51709;54.912;8.316;2023-06-14T15:12:33;5.40;;;3.08;;
65130;SDS011;51709;54.912;8.316;2023-06-14T15:17:54;9.35;;;3.13;;
65130;SDS011;51709;54.912;8.316;2023-06-14T15:23:15;3.40;;;3.20;;
65130;SDS011;51709;54.912;8.316;2023-06-14T15:28:39;10.85;;;4.50;;
65130;SDS011;51709;54.912;8.316;2023-06-14T15:34:00;6.43;;;5.55;;
65130;SDS011;51709;54.912;8.316;2023-06-14T15:39:21;8.02;;;7.32;;
65130;SDS011;51709;54.912;8.316;2023-06-14T15:44:43;9.90;;;9.10;;
65130;SDS011;51709;54.912;8.316;2023-06-14T15:55:27;15.25;;;14.27;;
65130;SDS011;51709;54.912;8.316;2023-06-14T16:00:48;20.00;;;18.55;;
65130;SDS011;51709;54.912;8.316;2023-06-14T16:20:16;26.30;;;25.08;;
65130;SDS011;51709;54.912;8.316;2023-06-14T16:25:37;28.33;;;27.02;;
65130;SDS011;51709;54.912;8.316;2023-06-14T16:30:58;30.33;;;28.38;;
65130;SDS011;51709;54.912;8.316;2023-06-14T16:36:18;22.00;;;21.05;;
65130;SDS011;51709;54.912;8.316;2023-06-14T16:41:39;20.80;;;19.70;;
65130;SDS011;51709;54.912;8.316;2023-06-14T16:46:59;20.63;;;19.45;;
65130;SDS011;51709;54.912;8.316;2023-06-14T16:52:22;16.80;;;15.75;;
65130;SDS011;51709;54.912;8.316;2023-06-14T16:57:43;15.07;;;13.77;;
65130;SDS011;51709;54.912;8.316;2023-06-14T17:03:03;14.18;;;12.73;;
65130;SDS011;51709;54.912;8.316;2023-06-14T17:08:25;11.52;;;10.63;;
65130;SDS011;51709;54.912;8.316;2023-06-14T17:13:45;10.35;;;9.68;;
65130;SDS011;51709;54.912;8.316;2023-06-14T17:19:06;9.35;;;8.55;;
65130;SDS011;51709;54.912;8.316;2023-06-14T17:24:27;7.53;;;6.77;;
65130;SDS011;51709;54.912;8.316;2023-06-14T17:38:10;5.82;;;5.32;;
65130;SDS011;51709;54.912;8.316;2023-06-14T17:43:32;5.07;;;4.60;;
65130;SDS011;51709;54.912;8.316;2023-06-14T17:48:53;3.75;;;3.45;;
65130;SDS011;51709;54.912;8.316;2023-06-14T17:54:13;4.03;;;3.50;;
65130;SDS011;51709;54.912;8.316;2023-06-14T17:59:34;10.00;;;3.80;;
65130;SDS011;51709;54.912;8.316;2023-06-14T18:04:54;4.07;;;3.08;;
65130;SDS011;51709;54.912;8.316;2023-06-14T18:10:15;4.47;;;3.53;;
65130;SDS011;51709;54.912;8.316;2023-06-14T18:15:37;4.38;;;3.08;;
65130;SDS011;51709;54.912;8.316;2023-06-14T18:20:58;3.00;;;2.67;;
65130;SDS011;51709;54.912;8.316;2023-06-14T18:26:21;2.78;;;2.53;;
65130;SDS011;51709;54.912;8.316;2023-06-14T18:31:44;6.03;;;2.92;;
65130;SDS011;51709;54.912;8.316;2023-06-14T18:37:05;6.20;;;2.80;;
65130;SDS011;51709;54.912;8.316;2023-06-14T18:42:26;3.22;;;2.80;;
65130;SDS011;51709;54.912;8.316;2023-06-14T18:47:47;4.07;;;2.55;;
65130;SDS011;51709;54.912;8.316;2023-06-14T18:53:08;8.50;;;3.00;;
65130;SDS011;51709;54.912;8.316;2023-06-14T18:58:28;3.30;;;2.53;;
65130;SDS011;51709;54.912;8.316;2023-06-14T19:03:49;7.15;;;3.00;;
65130;SDS011;51709;54.912;8.316;2023-06-14T19:09:10;2.55;;;2.15;;
65130;SDS011;51709;54.912;8.316;2023-06-14T19:14:31;5.70;;;2.45;;
65130;SDS011;51709;54.912;8.316;2023-06-14T19:19:52;5.03;;;2.90;;
65130;SDS011;51709;54.912;8.316;2023-06-14T19:25:12;6.25;;;2.45;;
65130;SDS011;51709;54.912;8.316;2023-06-14T19:30:34;10.68;;;2.72;;
65130;SDS011;51709;54.912;8.316;2023-06-14T19:35:55;4.13;;;2.55;;
65130;SDS011;51709;54.912;8.316;2023-06-14T19:41:16;3.53;;;2.90;;
65130;SDS011;51709;54.912;8.316;2023-06-14T19:46:37;5.43;;;2.92;;
65130;SDS011;51709;54.912;8.316;2023-06-14T19:51:59;6.28;;;3.03;;
65130;SDS011;51709;54.912;8.316;2023-06-14T19:57:20;3.88;;;2.70;;
65130;SDS011;51709;54.912;8.316;2023-06-14T20:02:41;6.32;;;3.22;;
65130;SDS011;51709;54.912;8.316;2023-06-14T20:08:02;6.65;;;2.88;;
65130;SDS011;51709;54.912;8.316;2023-06-14T20:13:25;7.63;;;3.10;;
65130;SDS011;51709;54.912;8.316;2023-06-14T20:18:47;5.43;;;3.08;;
65130;SDS011;51709;54.912;8.316;2023-06-14T20:24:09;11.32;;;3.22;;
65130;SDS011;51709;54.912;8.316;2023-06-14T20:29:31;5.28;;;3.17;;
65130;SDS011;51709;54.912;8.316;2023-06-14T20:34:55;4.07;;;3.13;;
65130;SDS011;51709;54.912;8.316;2023-06-14T20:40:20;6.03;;;3.45;;
65130;SDS011;51709;54.912;8.316;2023-06-14T20:45:43;5.95;;;3.88;;
65130;SDS011;51709;54.912;8.316;2023-06-14T20:51:04;5.38;;;3.28;;
65130;SDS011;51709;54.912;8.316;2023-06-14T20:56:39;3.55;;;2.97;;
65130;SDS011;51709;54.912;8.316;2023-06-14T21:02:03;5.22;;;3.78;;
65130;SDS011;51709;54.912;8.316;2023-06-14T21:07:36;5.80;;;3.43;;
65130;SDS011;51709;54.912;8.316;2023-06-14T21:13:00;4.18;;;3.78;;
65130;SDS011;51709;54.912;8.316;2023-06-14T21:18:21;3.83;;;3.50;;
65130;SDS011;51709;54.912;8.316;2023-06-14T21:23:43;4.10;;;3.25;;
65130;SDS011;51709;54.912;8.316;2023-06-14T21:29:08;4.88;;;3.80;;
65130;SDS011;51709;54.912;8.316;2023-06-14T21:34:29;5.38;;;3.75;;
65130;SDS011;51709;54.912;8.316;2023-06-14T21:39:50;5.00;;;3.28;;
65130;SDS011;51709;54.912;8.316;2023-06-14T21:45:12;8.38;;;3.60;;
65130;SDS011;51709;54.912;8.316;2023-06-14T21:50:34;7.05;;;3.53;;
65130;SDS011;51709;54.912;8.316;2023-06-14T21:55:55;17.85;;;4.57;;
65130;SDS011;51709;54.912;8.316;2023-06-14T22:01:16;5.30;;;3.90;;
65130;SDS011;51709;54.912;8.316;2023-06-14T22:06:38;6.65;;;3.33;;
65130;SDS011;51709;54.912;8.316;2023-06-14T22:12:04;8.88;;;4.10;;
65130;SDS011;51709;54.912;8.316;2023-06-14T22:17:29;7.40;;;3.88;;
65130;SDS011;51709;54.912;8.316;2023-06-14T22:22:51;6.65;;;3.90;;
65130;SDS011;51709;54.912;8.316;2023-06-14T22:28:11;7.30;;;3.65;;
65130;SDS011;51709;54.912;8.316;2023-06-14T22:33:34;5.32;;;3.67;;
65130;SDS011;51709;54.912;8.316;2023-06-14T22:39:04;8.40;;;5.53;;
65130;SDS011;51709;54.912;8.316;2023-06-14T22:44:26;6.55;;;4.28;;
65130;SDS011;51709;54.912;8.316;2023-06-14T22:49:51;10.02;;;4.10;;
65130;SDS011;51709;54.912;8.316;2023-06-14T22:55:28;6.35;;;3.85;;
65130;SDS011;51709;54.912;8.316;2023-06-14T23:00:51;7.47;;;3.97;;
65130;SDS011;51709;54.912;8.316;2023-06-14T23:11:42;7.32;;;4.72;;
65130;SDS011;51709;54.912;8.316;2023-06-14T23:17:05;6.47;;;4.32;;
65130;SDS011;51709;54.912;8.316;2023-06-14T23:38:21;11.25;;;5.00;;
65130;SDS011;51709;54.912;8.316;2023-06-14T23:43:47;9.90;;;4.43;;
65130;SDS011;51709;54.912;8.316;2023-06-14T23:49:12;10.15;;;4.40;;
65130;SDS011;51709;54.912;8.316;2023-06-14T23:54:33;5.60;;;4.32;;
65130;SDS011;51709;54.912;8.316;2023-06-14T23:59:58;8.50;;;4.32;;
